Time;durP1;ratioP1;P1;durP2;ratioP2;P2;SDS_P1;SDS_P2;PMS_P1;PMS_P2;Temp;Humidity;BMP_temperature;BMP_pressure;BME280_temperature;BME280_humidity;BME280_pressure;Samples;Min_cycle;Max_cycle;Signal;HPM_P1;HPM_P2
2024/01/23 00:02:09;;;;;;;15.23;3.42;;;;;;;5.06;100.00;101085.69;4994951;28;20057;-79
2024/01/23 00:04:37;;;;;;;18.35;5.68;;;;;;;5.06;100.00;101090.03;5008899;28;20054;-79
2024/01/23 00:07:04;;;;;;;22.13;4.25;;;;;;;5.06;100.00;101087.41;4984101;28;20053;-79
2024/01/23 00:09:32;;;;;;;24.17;3.90;;;;;;;5.04;100.00;101099.56;4994925;28;20451;-79
2024/01/23 00:12:01;;;;;;;22.88;4.65;;;;;;;5.01;100.00;101102.97;5008798;28;20477;-79
2024/01/23 00:14:28;;;;;;;14.15;3.78;;;;;;;4.98;100.00;101102.00;5010833;28;20053;-78
2024/01/23 00:16:56;;;;;;;26.95;4.63;;;;;;;4.96;100.00;101122.84;5002491;28;20053;-78
2024/01/23 00:19:23;;;;;;;21.45;4.95;;;;;;;4.92;100.00;101126.19;5011201;28;20060;-78
2024/01/23 00:21:51;;;;;;;24.95;3.88;;;;;;;4.88;100.00;101138.28;5021967;28;20050;-79
2024/01/23 00:24:18;;;;;;;24.40;4.03;;;;;;;4.86;100.00;101134.72;4976361;28;20053;-78
2024/01/23 00:26:46;;;;;;;14.13;3.60;;;;;;;4.86;100.00;101147.78;4992251;28;20052;-78
2024/01/23 00:29:14;;;;;;;16.67;3.42;;;;;;;4.85;100.00;101142.50;5029366;28;20057;-78
2024/01/23 00:31:41;;;;;;;23.38;5.32;;;;;;;4.82;100.00;101147.63;5018223;28;20049;-78
2024/01/23 00:34:09;;;;;;;22.58;4.38;;;;;;;4.79;100.00;101158.00;4999197;28;20061;-79
2024/01/23 00:36:37;;;;;;;18.20;3.70;;;;;;;4.76;100.00;101148.31;4993498;28;20046;-80
2024/01/23 00:39:04;;;;;;;25.05;4.63;;;;;;;4.75;100.00;101158.72;4979102;28;20050;-78
2024/01/23 00:41:31;;;;;;;26.40;5.20;;;;;;;4.72;100.00;101159.50;5011333;28;20513;-78
2024/01/23 00:43:59;;;;;;;19.60;4.07;;;;;;;4.72;100.00;101166.47;5009115;28;20056;-78
2024/01/23 00:46:26;;;;;;;31.27;4.78;;;;;;;4.70;100.00;101169.00;5010578;28;20447;-78
2024/01/23 00:48:54;;;;;;;19.88;4.35;;;;;;;4.71;100.00;101159.44;4984249;28;20042;-79
2024/01/23 00:51:21;;;;;;;21.15;4.63;;;;;;;4.73;100.00;101174.34;4998638;28;20053;-78
2024/01/23 00:53:49;;;;;;;22.92;5.22;;;;;;;4.74;100.00;101185.66;5008990;28;20042;-79
2024/01/23 00:56:16;;;;;;;27.02;4.47;;;;;;;4.73;100.00;101163.03;4986868;28;20618;-78
2024/01/23 00:58:44;;;;;;;21.55;4.80;;;;;;;4.74;100.00;101170.00;5011123;28;20041;-79
2024/01/23 01:01:11;;;;;;;20.10;4.10;;;;;;;4.74;100.00;101181.31;4994240;28;20053;-78
2024/01/23 01:03:39;;;;;;;21.63;4.32;;;;;;;4.72;100.00;101187.34;5001378;28;20049;-79
2024/01/23 01:06:06;;;;;;;29.35;4.78;;;;;;;4.72;100.00;101190.81;5009968;28;20643;-78
2024/01/23 01:08:34;;;;;;;28.80;5.20;;;;;;;4.75;100.00;101184.84;5009739;28;20494;-78
2024/01/23 01:11:02;;;;;;;26.52;5.68;;;;;;;4.75;100.00;101193.56;4972847;28;20050;-79
2024/01/23 01:13:30;;;;;;;21.77;4.15;;;;;;;4.77;100.00;101199.72;4991945;28;20041;-79
2024/01/23 01:15:58;;;;;;;21.15;5.05;;;;;;;4.80;100.00;101186.75;5009634;28;20065;-78
2024/01/23 01:18:25;;;;;;;19.00;3.40;;;;;;;4.80;100.00;101185.84;4999706;28;20065;-79
2024/01/23 01:20:55;;;;;;;18.75;4.18;;;;;;;4.78;100.00;101201.50;5028269;28;20053;-78
2024/01/23 01:23:22;;;;;;;26.52;4.32;;;;;;;4.77;100.00;101204.94;5025393;28;20045;-79
2024/01/23 01:25:50;;;;;;;20.08;4.32;;;;;;;4.76;100.00;101204.88;4977251;28;20049;-78
2024/01/23 01:28:19;;;;;;;21.92;4.05;;;;;;;4.73;100.00;101196.97;5007707;28;20042;-79
2024/01/23 01:30:47;;;;;;;18.30;3.95;;;;;;;4.72;100.00;101221.28;5007725;28;20057;-78
2024/01/23 01:33:14;;;;;;;23.83;3.60;;;;;;;4.69;100.00;101212.50;5000818;28;20057;-79
2024/01/23 01:35:42;;;;;;;20.80;4.05;;;;;;;4.69;100.00;101219.47;4992338;28;20053;-78
2024/01/23 01:38:10;;;;;;;18.92;4.05;;;;;;;4.70;100.00;101223.84;5009395;28;20037;-78
2024/01/23 01:40:37;;;;;;;23.02;4.47;;;;;;;4.71;100.00;101235.16;5026256;28;20071;-78
2024/01/23 01:43:05;;;;;;;16.73;3.92;;;;;;;4.71;100.00;101227.31;4979558;28;20052;-78
2024/01/23 01:45:33;;;;;;;20.95;4.07;;;;;;;4.73;100.00;101238.75;5026353;28;20060;-79
2024/01/23 01:48:00;;;;;;;15.55;3.42;;;;;;;4.73;100.00;101242.22;5010446;28;20045;-79
2024/01/23 01:50:28;;;;;;;22.30;3.60;;;;;;;4.72;100.00;101248.25;4998691;28;20489;-78
2024/01/23 01:52:56;;;;;;;24.98;4.47;;;;;;;4.72;100.00;101244.78;5028066;28;20050;-78
2024/01/23 01:55:24;;;;;;;21.48;4.43;;;;;;;4.69;100.00;101249.06;4991304;28;20050;-78
2024/01/23 01:57:52;;;;;;;26.40;4.68;;;;;;;4.68;100.00;101269.88;4960114;28;20057;-78
2024/01/23 02:00:19;;;;;;;23.58;5.30;;;;;;;4.66;100.00;101268.97;5031439;28;20422;-79
2024/01/23 02:02:50;;;;;;;20.02;3.70;;;;;;;4.63;100.00;101274.06;5008962;28;20057;-79
2024/01/23 02:05:17;;;;;;;24.45;4.72;;;;;;;4.60;100.00;101277.47;4998495;28;20049;-79
2024/01/23 02:07:46;;;;;;;19.35;4.53;;;;;;;4.57;100.00;101285.19;5009561;28;20061;-79
2024/01/23 02:10:14;;;;;;;18.77;4.00;;;;;;;4.57;100.00;101300.84;5008565;28;20049;-78
2024/01/23 02:12:41;;;;;;;20.35;4.45;;;;;;;4.56;100.00;101296.47;5008056;28;20045;-78
2024/01/23 02:15:09;;;;;;;25.73;4.45;;;;;;;4.53;100.00;101301.56;4982927;28;20052;-78
2024/01/23 02:17:38;;;;;;;29.40;5.38;;;;;;;4.52;100.00;101301.50;5008651;28;20049;-79
2024/01/23 02:20:07;;;;;;;26.10;4.82;;;;;;;4.47;100.00;101297.03;5004506;28;20049;-78
2024/01/23 02:22:35;;;;;;;23.00;4.70;;;;;;;4.46;100.00;101299.56;5004256;28;20038;-80
2024/01/23 02:25:02;;;;;;;21.45;5.05;;;;;;;4.44;100.00;101301.25;5009183;28;20056;-79
2024/01/23 02:27:30;;;;;;;23.77;4.75;;;;;;;4.43;100.00;101310.81;5007075;28;20049;-79
2024/01/23 02:29:57;;;;;;;21.98;4.63;;;;;;;4.43;100.00;101308.19;4977400;28;20041;-79
2024/01/23 02:32:25;;;;;;;22.27;4.43;;;;;;;4.44;100.00;101306.47;5008003;28;20056;-78
2024/01/23 02:34:53;;;;;;;16.90;3.40;;;;;;;4.46;100.00;101302.19;5012475;28;20045;-79
2024/01/23 02:37:20;;;;;;;19.23;4.45;;;;;;;4.51;100.00;101318.91;5002328;28;20052;-81
2024/01/23 02:39:47;;;;;;;25.30;4.38;;;;;;;4.53;100.00;101324.19;4997801;28;20494;-80
2024/01/23 02:42:15;;;;;;;21.00;4.75;;;;;;;4.55;100.00;101325.13;5011533;28;20049;-79
2024/01/23 02:44:45;;;;;;;25.15;5.50;;;;;;;4.55;100.00;101319.91;4997168;28;20061;-80
2024/01/23 02:47:12;;;;;;;21.80;4.03;;;;;;;4.56;100.00;101321.69;4980292;28;20510;-80
2024/01/23 02:49:41;;;;;;;21.67;4.65;;;;;;;4.59;100.00;101337.44;5013620;28;20441;-79
2024/01/23 02:52:08;;;;;;;26.45;5.32;;;;;;;4.60;100.00;101328.78;5002498;28;20046;-80
2024/01/23 02:54:36;;;;;;;22.90;5.10;;;;;;;4.62;100.00;101330.59;5011735;28;20541;-79
2024/01/23 02:57:04;;;;;;;20.38;4.32;;;;;;;4.67;100.00;101336.00;5013049;28;20061;-79
2024/01/23 02:59:32;;;;;;;21.60;5.43;;;;;;;4.72;100.00;101339.66;5011160;28;20049;-80
2024/01/23 03:01:59;;;;;;;29.67;5.47;;;;;;;4.77;100.00;101348.53;4980109;28;20410;-79
2024/01/23 03:04:27;;;;;;;22.70;4.60;;;;;;;4.80;100.00;101343.44;5011126;28;20557;-79
2024/01/23 03:06:54;;;;;;;23.00;3.95;;;;;;;4.85;100.00;101346.19;5020777;28;20403;-79
2024/01/23 03:09:21;;;;;;;25.08;4.78;;;;;;;4.86;100.00;101351.47;5010515;28;20048;-79
2024/01/23 03:11:49;;;;;;;26.48;4.38;;;;;;;4.89;100.00;101342.84;5001688;28;20060;-79
2024/01/23 03:14:16;;;;;;;24.05;4.15;;;;;;;4.89;100.00;101348.06;5011904;28;20053;-80
2024/01/23 03:16:43;;;;;;;25.17;4.75;;;;;;;4.88;100.00;101355.03;4995287;28;20076;-80
2024/01/23 03:19:11;;;;;;;24.42;5.70;;;;;;;4.87;100.00;101355.84;5000410;28;20790;-79
2024/01/23 03:21:38;;;;;;;33.10;5.68;;;;;;;4.88;100.00;101357.63;5009654;28;20044;-80
2024/01/23 03:24:06;;;;;;;23.55;5.85;;;;;;;4.91;100.00;101362.06;4982404;28;20049;-80
2024/01/23 03:26:33;;;;;;;27.70;5.80;;;;;;;4.93;100.00;101368.22;5012961;28;20057;-79
2024/01/23 03:29:02;;;;;;;21.48;4.65;;;;;;;4.96;100.00;101380.53;5012065;28;20076;-79
2024/01/23 03:31:29;;;;;;;29.65;5.00;;;;;;;4.97;100.00;101396.25;5012834;28;20050;-80
2024/01/23 03:33:56;;;;;;;28.23;5.15;;;;;;;4.97;100.00;101382.28;4984527;28;20049;-80
2024/01/23 03:36:24;;;;;;;26.52;4.28;;;;;;;4.98;100.00;101373.63;5012055;28;20053;-79
2024/01/23 03:38:51;;;;;;;26.48;4.68;;;;;;;4.99;100.00;101376.28;4985263;28;20414;-80
2024/01/23 03:41:19;;;;;;;26.42;4.82;;;;;;;5.04;100.00;101390.38;5012749;28;20052;-79
2024/01/23 03:43:47;;;;;;;20.25;4.07;;;;;;;5.05;100.00;101386.94;5010402;28;20079;-79
2024/01/23 03:46:15;;;;;;;20.83;4.72;;;;;;;5.10;100.00;101392.31;5008270;28;20037;-79
2024/01/23 03:48:42;;;;;;;23.25;5.03;;;;;;;5.13;100.00;101405.50;4976807;28;20050;-80
2024/01/23 03:51:10;;;;;;;25.13;4.93;;;;;;;5.20;100.00;101417.94;5000889;28;20069;-79
2024/01/23 03:53:37;;;;;;;22.50;4.25;;;;;;;5.25;100.00;101407.63;5009287;28;20048;-79
2024/01/23 03:56:05;;;;;;;26.23;4.75;;;;;;;5.28;100.00;101415.56;4987026;28;20935;-80
2024/01/23 03:58:32;;;;;;;33.47;6.57;;;;;;;5.30;100.00;101419.13;5028928;28;20726;-80
2024/01/23 04:01:01;;;;;;;33.75;6.30;;;;;;;5.34;100.00;101435.81;5010148;28;20057;-80
2024/01/23 04:03:28;;;;;;;24.17;6.20;;;;;;;5.37;100.00;101444.63;5024556;28;20053;-79
2024/01/23 04:05:56;;;;;;;29.42;5.72;;;;;;;5.37;100.00;101459.41;4998318;28;20049;-80
2024/01/23 04:08:23;;;;;;;33.00;5.40;;;;;;;5.39;100.00;101468.22;5011220;28;20418;-80
2024/01/23 04:10:51;;;;;;;31.13;6.40;;;;;;;5.41;100.00;101466.56;5018333;28;20093;-80
2024/01/23 04:13:19;;;;;;;36.88;6.40;;;;;;;5.43;100.00;101478.81;5011272;28;20080;-79
2024/01/23 04:15:46;;;;;;;33.35;5.97;;;;;;;5.46;100.00;101484.16;4993592;28;20076;-81
2024/01/23 04:18:14;;;;;;;32.25;5.25;;;;;;;5.50;100.00;101502.56;5010585;28;20053;-80
2024/01/23 04:20:42;;;;;;;19.48;5.07;;;;;;;5.50;100.00;101505.16;4981098;28;20100;-80
2024/01/23 04:23:09;;;;;;;30.15;5.97;;;;;;;5.51;100.00;101492.16;5010179;28;20049;-79
2024/01/23 04:25:37;;;;;;;25.98;4.88;;;;;;;5.53;100.00;101500.94;5003691;28;20034;-79
2024/01/23 04:28:04;;;;;;;45.70;7.28;;;;;;;5.55;100.00;101503.59;4988287;28;20045;-79
2024/01/23 04:30:32;;;;;;;24.83;4.82;;;;;;;5.56;100.00;101494.94;5010664;28;20069;-79
2024/01/23 04:33:00;;;;;;;25.90;5.57;;;;;;;5.58;100.00;101508.94;5025533;28;20487;-80
2024/01/23 04:35:27;;;;;;;37.20;6.85;;;;;;;5.58;100.00;101514.19;4979960;28;20052;-80
2024/01/23 04:37:55;;;;;;;28.13;5.53;;;;;;;5.57;100.00;101518.50;5007660;28;20053;-80
2024/01/23 04:40:22;;;;;;;31.80;5.47;;;;;;;5.58;100.00;101512.44;5020931;28;20048;-80
2024/01/23 04:42:50;;;;;;;33.53;5.65;;;;;;;5.58;100.00;101528.13;5004694;28;20116;-80
2024/01/23 04:45:17;;;;;;;38.17;6.55;;;;;;;5.60;100.00;101526.47;5014193;28;20049;-80
2024/01/23 04:47:45;;;;;;;33.38;5.68;;;;;;;5.62;100.00;101536.97;5009877;28;20537;-80
2024/01/23 04:50:12;;;;;;;28.95;5.88;;;;;;;5.62;100.00;101552.66;4967332;28;20055;-79
2024/01/23 04:52:40;;;;;;;39.67;6.55;;;;;;;5.63;100.00;101550.09;5013346;28;20053;-79
2024/01/23 04:55:08;;;;;;;29.60;5.32;;;;;;;5.64;100.00;101548.38;5009940;28;20259;-80
2024/01/23 04:57:36;;;;;;;26.95;5.43;;;;;;;5.64;100.00;101554.47;5001860;28;20057;-80
2024/01/23 05:00:05;;;;;;;35.58;5.97;;;;;;;5.65;100.00;101558.88;5008948;28;20447;-79
2024/01/23 05:02:32;;;;;;;27.70;6.05;;;;;;;5.67;100.00;101566.75;4986803;28;20045;-80
2024/01/23 05:05:00;;;;;;;32.95;5.80;;;;;;;5.68;100.00;101572.91;4995915;28;20058;-79
2024/01/23 05:07:27;;;;;;;35.85;7.32;;;;;;;5.68;100.00;101585.97;5000793;28;20053;-80
2024/01/23 05:09:55;;;;;;;41.50;6.40;;;;;;;5.68;100.00;101583.38;4991640;28;20415;-81
2024/01/23 05:12:22;;;;;;;32.85;5.80;;;;;;;5.68;100.00;101597.31;4993256;28;20527;-79
2024/01/23 05:14:50;;;;;;;28.45;5.78;;;;;;;5.68;100.00;101605.16;4974385;28;20045;-79
2024/01/23 05:17:18;;;;;;;32.22;6.72;;;;;;;5.67;100.00;101613.84;4997198;28;20084;-80
2024/01/23 05:19:45;;;;;;;33.30;6.00;;;;;;;5.69;100.00;101614.81;4980518;28;20096;-81
2024/01/23 05:22:13;;;;;;;35.40;7.10;;;;;;;5.69;100.00;101622.66;4952998;28;20068;-80
2024/01/23 05:24:41;;;;;;;37.30;6.55;;;;;;;5.69;100.00;101633.09;4980865;28;20062;-81
2024/01/23 05:27:08;;;;;;;37.40;6.95;;;;;;;5.68;100.00;101631.31;4977891;28;20060;-80
2024/01/23 05:29:36;;;;;;;38.97;5.93;;;;;;;5.69;100.00;101648.81;4984442;28;20053;-79
2024/01/23 05:32:03;;;;;;;35.05;6.03;;;;;;;5.71;100.00;101648.81;4971800;28;20057;-80
2024/01/23 05:34:31;;;;;;;32.95;6.18;;;;;;;5.73;100.00;101655.91;4972304;28;20482;-80
2024/01/23 05:36:58;;;;;;;30.92;6.93;;;;;;;5.73;100.00;101658.53;4956479;28;20727;-80
2024/01/23 05:39:27;;;;;;;33.45;6.45;;;;;;;5.73;100.00;101679.44;4972447;28;20060;-80
2024/01/23 05:41:57;;;;;;;37.60;7.43;;;;;;;5.74;100.00;101668.13;5002061;28;20069;-79
2024/01/23 05:44:25;;;;;;;33.45;7.38;;;;;;;5.73;100.00;101682.06;4982937;28;20056;-79
2024/01/23 05:46:52;;;;;;;38.17;6.72;;;;;;;5.71;100.00;101681.13;4988560;28;20423;-80
2024/01/23 05:49:19;;;;;;;40.03;6.13;;;;;;;5.70;100.00;101702.88;4994859;28;20050;-79
2024/01/23 05:51:47;;;;;;;39.05;7.55;;;;;;;5.68;100.00;101694.06;4987812;28;20066;-79
2024/01/23 05:54:14;;;;;;;36.05;6.13;;;;;;;5.64;100.00;101693.06;4939429;28;20054;-79
2024/01/23 05:56:42;;;;;;;32.65;5.55;;;;;;;5.62;100.00;101693.84;4982515;28;20041;-79
2024/01/23 05:59:09;;;;;;;38.05;7.15;;;;;;;5.57;100.00;101709.34;4967554;28;20053;-80
2024/01/23 06:01:37;;;;;;;33.42;6.22;;;;;;;5.54;100.00;101731.88;5001366;28;20058;-79
2024/01/23 06:04:08;;;;;;;31.55;6.28;;;;;;;5.45;100.00;101728.09;4963488;28;20054;-80
2024/01/23 06:06:39;;;;;;;;;;;;;;;5.39;100.00;101737.44;4982296;28;20041;-80
2024/01/23 06:09:09;;;;;;;37.25;6.38;;;;;;;5.33;100.00;101755.47;4969325;28;19929;-79
2024/01/23 06:11:39;;;;;;;35.63;6.50;;;;;;;5.27;100.00;101751.81;4989032;28;20041;-78
2024/01/23 06:14:08;;;;;;;42.75;7.72;;;;;;;5.21;100.00;101753.28;5003973;28;20068;-80
2024/01/23 06:16:37;;;;;;;34.15;7.30;;;;;;;5.16;100.00;101760.03;5018214;28;20093;-80
2024/01/23 06:19:08;;;;;;;40.45;7.60;;;;;;;5.12;100.00;101765.97;4997665;28;20061;-79
2024/01/23 06:21:37;;;;;;;34.97;7.07;;;;;;;5.06;100.00;101772.72;4985293;28;20060;-79
2024/01/23 06:24:05;;;;;;;35.20;6.72;;;;;;;5.01;100.00;101787.34;4973967;28;20045;-79
2024/01/23 06:26:32;;;;;;;38.88;6.20;;;;;;;4.96;100.00;101788.88;5003038;28;20045;-80
2024/01/23 06:29:01;;;;;;;36.95;6.22;;;;;;;4.93;100.00;101796.56;5016118;28;20058;-79
2024/01/23 06:31:29;;;;;;;42.70;8.00;;;;;;;4.89;100.00;101799.88;5006262;28;20545;-80
2024/01/23 06:33:57;;;;;;;42.88;8.18;;;;;;;4.86;100.00;101803.28;5016063;28;20053;-79
2024/01/23 06:36:25;;;;;;;41.92;6.70;;;;;;;4.87;100.00;101794.59;4993389;28;20069;-80
2024/01/23 06:38:52;;;;;;;33.95;7.43;;;;;;;4.85;100.00;101800.59;4974132;28;20047;-79
2024/01/23 06:41:20;;;;;;;38.45;6.97;;;;;;;4.83;100.00;101810.09;4990155;28;20049;-80
2024/01/23 06:43:47;;;;;;;39.10;7.43;;;;;;;4.82;100.00;101818.72;4997177;28;20049;-79
2024/01/23 06:46:15;;;;;;;35.10;6.40;;;;;;;4.80;100.00;101828.22;5007939;28;20052;-80
2024/01/23 06:48:42;;;;;;;36.38;7.05;;;;;;;4.77;100.00;101833.34;5007220;28;20427;-79
2024/01/23 06:51:10;;;;;;;33.13;6.82;;;;;;;4.75;100.00;101835.88;5007654;28;20045;-80
2024/01/23 06:53:38;;;;;;;39.85;6.40;;;;;;;4.74;100.00;101838.41;5007630;28;20053;-79
2024/01/23 06:56:05;;;;;;;36.65;7.70;;;;;;;4.72;100.00;101848.78;4975626;28;20046;-79
2024/01/23 06:58:33;;;;;;;44.25;8.85;;;;;;;4.70;100.00;101853.06;5003100;28;20399;-79
2024/01/23 07:01:01;;;;;;;47.83;8.73;;;;;;;4.70;100.00;101863.50;5005783;28;20061;-79
2024/01/23 07:03:29;;;;;;;36.83;7.57;;;;;;;4.71;100.00;101861.78;5008612;28;20045;-79
2024/01/23 07:05:57;;;;;;;40.25;6.60;;;;;;;4.68;100.00;101863.44;5006268;28;20049;-80
2024/01/23 07:08:25;;;;;;;51.40;6.95;;;;;;;4.66;100.00;101864.19;5025404;28;20050;-79
2024/01/23 07:10:52;;;;;;;44.28;7.75;;;;;;;4.65;100.00;101873.75;4982743;28;20056;-79
2024/01/23 07:13:21;;;;;;;40.28;8.10;;;;;;;4.66;100.00;101880.75;4964658;28;20050;-79
2024/01/23 07:15:49;;;;;;;42.03;7.45;;;;;;;4.64;100.00;101885.00;4995642;28;20045;-79
2024/01/23 07:18:17;;;;;;;49.60;10.07;;;;;;;4.64;100.00;101886.75;4965165;28;20072;-80
2024/01/23 07:20:45;;;;;;;52.42;8.50;;;;;;;4.61;100.00;101890.13;5006743;28;20049;-79
2024/01/23 07:23:13;;;;;;;48.78;8.85;;;;;;;4.60;100.00;101895.28;4991494;28;20431;-79
2024/01/23 07:25:41;;;;;;;43.97;9.95;;;;;;;4.58;100.00;101889.97;4984132;28;20056;-80
2024/01/23 07:28:09;;;;;;;39.40;7.78;;;;;;;4.56;100.00;101902.06;4964080;28;20064;-79
2024/01/23 07:30:55;;;;;;;46.72;8.05;;;;;;;4.55;100.00;101915.03;5011210;28;20049;-78
2024/01/23 07:33:23;;;;;;;46.55;8.00;;;;;;;4.51;100.00;101926.19;5000437;28;20099;-78
2024/01/23 07:35:50;;;;;;;38.88;6.57;;;;;;;4.48;100.00;101920.00;4977480;28;20049;-79
2024/01/23 07:38:18;;;;;;;39.33;8.25;;;;;;;4.49;100.00;101927.00;5002166;28;20418;-78
2024/01/23 07:40:46;;;;;;;40.42;7.18;;;;;;;4.47;100.00;101931.25;5002861;28;20057;-80
2024/01/23 07:43:15;;;;;;;49.50;8.02;;;;;;;4.47;100.00;101938.19;4973497;28;20057;-79
2024/01/23 07:45:43;;;;;;;44.55;8.07;;;;;;;4.46;100.00;101946.84;5009547;28;20045;-79
2024/01/23 07:48:10;;;;;;;49.47;7.38;;;;;;;4.46;100.00;101959.88;4983054;28;20064;-78
2024/01/23 07:50:38;;;;;;;42.13;7.78;;;;;;;4.45;100.00;101965.94;5017182;28;20418;-79
2024/01/23 07:53:05;;;;;;;40.25;7.43;;;;;;;4.45;100.00;101973.78;5029630;28;20053;-79
2024/01/23 07:55:33;;;;;;;48.42;7.47;;;;;;;4.46;100.00;101980.75;5012329;28;20041;-78
2024/01/23 07:58:00;;;;;;;47.95;7.55;;;;;;;4.45;100.00;101982.50;4970939;28;20054;-79
2024/01/23 08:00:28;;;;;;;39.65;7.93;;;;;;;4.46;100.00;101993.81;5011695;28;20045;-78
2024/01/23 08:02:56;;;;;;;42.33;7.18;;;;;;;4.45;100.00;101987.72;4992082;28;20053;-78
2024/01/23 08:05:23;;;;;;;41.83;8.02;;;;;;;4.45;100.00;101998.16;4985008;28;20049;-78
2024/01/23 08:07:51;;;;;;;50.40;7.75;;;;;;;4.46;100.00;101999.03;5008162;28;20061;-79
2024/01/23 08:10:21;;;;;;;44.45;9.63;;;;;;;4.47;100.00;101995.63;5011372;28;20048;-79
2024/01/23 08:12:48;;;;;;;37.53;6.72;;;;;;;4.48;100.00;102013.09;5002160;28;20053;-79
2024/01/23 08:15:17;;;;;;;42.00;7.40;;;;;;;4.47;100.00;102021.72;4970068;28;20049;-79
2024/01/23 08:17:45;;;;;;;46.15;7.50;;;;;;;4.48;100.00;102029.63;4992515;28;20060;-79
2024/01/23 08:20:13;;;;;;;45.33;8.68;;;;;;;4.49;100.00;102028.78;5000797;28;20490;-79
2024/01/23 08:22:41;;;;;;;47.97;8.07;;;;;;;4.50;100.00;102034.94;4999179;28;20042;-79
2024/01/23 08:25:08;;;;;;;49.20;7.65;;;;;;;4.48;100.00;102042.69;5010692;28;20395;-79
2024/01/23 08:27:36;;;;;;;36.05;7.28;;;;;;;4.52;100.00;102054.16;5000763;28;20050;-80
2024/01/23 08:30:05;;;;;;;44.40;7.18;;;;;;;4.53;100.00;102053.31;5002389;28;20056;-79
2024/01/23 08:32:33;;;;;;;55.38;9.25;;;;;;;4.54;100.00;102054.22;5009978;28;20049;-79
2024/01/23 08:35:01;;;;;;;45.67;8.15;;;;;;;4.54;100.00;102072.47;5000959;28;20844;-79
2024/01/23 08:37:28;;;;;;;45.33;8.75;;;;;;;4.55;100.00;102067.34;5025340;28;20514;-79
2024/01/23 08:39:55;;;;;;;47.88;8.75;;;;;;;4.57;100.00;102068.31;5008036;28;20054;-79
2024/01/23 08:42:23;;;;;;;32.97;7.35;;;;;;;4.57;100.00;102081.34;5004170;28;20045;-79
2024/01/23 08:44:51;;;;;;;52.88;8.20;;;;;;;4.58;100.00;102071.84;4965473;28;20518;-80
2024/01/23 08:47:20;;;;;;;50.65;9.02;;;;;;;4.60;100.00;102068.47;4994579;28;20056;-80
2024/01/23 08:49:47;;;;;;;43.58;7.75;;;;;;;4.62;100.00;102077.25;5026047;28;20053;-78
2024/01/23 08:52:16;;;;;;;47.85;8.63;;;;;;;4.66;100.00;102075.69;5001929;28;20049;-79
2024/01/23 08:54:43;;;;;;;56.80;8.93;;;;;;;4.69;100.00;102081.06;5026851;28;20057;-79
2024/01/23 08:57:12;;;;;;;42.72;7.10;;;;;;;4.73;100.00;102084.72;5009879;28;20050;-79
2024/01/23 08:59:40;;;;;;;48.35;8.50;;;;;;;4.76;100.00;102071.78;4980525;28;20045;-79
2024/01/23 09:02:07;;;;;;;46.97;8.38;;;;;;;4.78;100.00;102062.31;5013417;28;20046;-79
2024/01/23 09:04:35;;;;;;;42.80;7.18;;;;;;;4.82;100.00;102082.50;5027917;28;20513;-80
2024/01/23 09:07:03;;;;;;;30.65;6.57;;;;;;;4.84;100.00;102066.09;4992569;28;20050;-79
2024/01/23 09:09:30;;;;;;;42.40;7.72;;;;;;;4.88;100.00;102065.41;4994009;28;20052;-79
2024/01/23 09:11:58;;;;;;;53.20;8.70;;;;;;;4.93;100.00;102062.13;5006729;28;20056;-79
2024/01/23 09:14:26;;;;;;;43.88;8.10;;;;;;;4.95;100.00;102070.91;5009317;28;20061;-79
2024/01/23 09:16:53;;;;;;;38.85;7.50;;;;;;;4.98;100.00;102071.94;4950106;28;21114;-80
2024/01/23 09:19:20;;;;;;;36.15;7.80;;;;;;;5.02;100.00;102076.47;5010734;28;20053;-79
2024/01/23 09:21:48;;;;;;;50.08;8.38;;;;;;;5.05;100.00;102074.03;5000363;28;20053;-80
2024/01/23 09:24:17;;;;;;;46.10;7.85;;;;;;;5.09;100.00;102082.91;4998267;28;20064;-79
2024/01/23 09:26:44;;;;;;;38.63;8.48;;;;;;;5.12;100.00;102082.13;5010182;28;20053;-80
2024/01/23 09:29:12;;;;;;;39.28;7.50;;;;;;;5.16;100.00;102081.44;5011651;28;20049;-79
2024/01/23 09:31:46;;;;;;;31.92;6.40;;;;;;;5.19;100.00;102098.16;4956849;28;20053;-79
2024/01/23 09:34:14;;;;;;;42.42;7.03;;;;;;;5.22;100.00;102106.16;5008292;28;20068;-79
2024/01/23 09:36:42;;;;;;;41.60;8.55;;;;;;;5.26;100.00;102107.19;5024657;28;20048;-81
2024/01/23 09:39:13;;;;;;;40.15;8.38;;;;;;;5.32;100.00;102103.94;4989684;28;20041;-80
2024/01/23 09:41:48;;;;;;;42.03;6.75;;;;;;;5.35;100.00;102110.22;4995370;28;20522;-80
2024/01/23 09:44:19;;;;;;;41.00;7.47;;;;;;;5.39;100.00;102114.75;4989935;28;20057;-80
2024/01/23 09:46:50;;;;;;;43.05;8.82;;;;;;;5.41;100.00;102120.94;4957051;28;23791;-78
2024/01/23 09:49:18;;;;;;;37.45;6.50;;;;;;;5.47;100.00;102129.03;5003291;28;20057;-80
2024/01/23 09:51:49;;;;;;;;;;;;;;;5.52;100.00;102141.41;4999712;28;20061;-79
2024/01/23 09:54:17;;;;;;;42.60;8.10;;;;;;;5.55;100.00;102141.56;5008482;28;19929;-79
2024/01/23 09:56:44;;;;;;;49.50;7.82;;;;;;;5.57;100.00;102134.69;4980871;28;20045;-80
2024/01/23 09:59:12;;;;;;;39.63;7.57;;;;;;;5.62;100.00;102130.56;4985167;28;20053;-80
2024/01/23 10:01:39;;;;;;;33.63;6.65;;;;;;;5.65;100.00;102128.06;4980827;28;20068;-79
2024/01/23 10:04:07;;;;;;;42.72;6.43;;;;;;;5.68;100.00;102115.13;5018448;28;20053;-80
2024/01/23 10:06:36;;;;;;;55.50;8.68;;;;;;;5.70;100.00;102131.78;5011456;28;20056;-79
2024/01/23 10:09:04;;;;;;;45.85;7.32;;;;;;;5.73;100.00;102126.69;5006280;28;20045;-79
2024/01/23 10:11:35;;;;;;;39.35;6.75;;;;;;;5.77;100.00;102122.50;5010388;28;20061;-79
2024/01/23 10:14:04;;;;;;;35.08;7.50;;;;;;;5.79;100.00;102126.94;5032648;28;20053;-79
2024/01/23 10:16:32;;;;;;;36.67;6.57;;;;;;;5.82;100.00;102129.72;5012020;28;20049;-79
2024/01/23 10:19:01;;;;;;;45.05;7.80;;;;;;;5.84;100.00;102129.75;4976166;28;20049;-79
2024/01/23 10:21:29;;;;;;;44.75;7.72;;;;;;;5.85;100.00;102132.44;5009283;28;20060;-80
2024/01/23 10:23:57;;;;;;;36.55;6.72;;;;;;;5.90;100.00;102142.19;5008401;28;20189;-79
2024/01/23 10:26:24;;;;;;;37.95;6.80;;;;;;;5.94;100.00;102142.41;5006369;28;20756;-80
2024/01/23 10:28:52;;;;;;;51.13;8.25;;;;;;;5.98;100.00;102133.00;5019358;28;20037;-80
2024/01/23 10:31:19;;;;;;;41.83;7.50;;;;;;;5.99;100.00;102132.16;4990628;28;20383;-79
2024/01/23 10:33:47;;;;;;;38.35;7.63;;;;;;;6.04;100.00;102133.25;5000591;28;20062;-79
2024/01/23 10:36:15;;;;;;;35.80;7.32;;;;;;;6.07;100.00;102124.63;5029161;28;20059;-79
2024/01/23 10:38:46;;;;;;;44.10;7.63;;;;;;;6.12;100.00;102137.09;5014466;28;20041;-79
2024/01/23 10:41:16;;;;;;;34.38;6.30;;;;;;;6.17;100.00;102127.72;5004555;28;20052;-80
2024/01/23 10:43:46;;;;;;;40.47;7.65;;;;;;;6.23;100.00;102130.56;5002894;28;20049;-79
2024/01/23 10:46:14;;;;;;;44.17;8.52;;;;;;;6.26;100.00;102114.13;4998291;28;20049;-79
2024/01/23 10:48:41;;;;;;;31.75;7.18;;;;;;;6.29;100.00;102119.47;5016251;28;20045;-79
2024/01/23 10:51:20;;;;;;;44.47;8.80;;;;;;;6.30;100.00;102136.97;4976742;28;20581;-79
2024/01/23 10:54:01;;;;;;;45.15;8.07;;;;;;;6.36;100.00;102125.84;5007010;28;20057;-79
2024/01/23 10:56:33;;;;;;;;;;;;;;;6.38;100.00;102125.06;5016139;28;20041;-80
2024/01/23 10:59:05;;;;;;;43.03;7.60;;;;;;;6.44;100.00;102142.75;5015042;28;19924;-81
2024/01/23 11:01:42;;;;;;;29.23;7.43;;;;;;;6.49;100.00;102143.84;4999187;28;20418;-81
2024/01/23 11:04:10;;;;;;;35.35;7.65;;;;;;;6.54;100.00;102121.38;4987123;28;20128;-81
2024/01/23 11:06:55;;;;;;;28.80;6.85;;;;;;;6.60;100.00;102131.19;4999801;28;20053;-78
2024/01/23 11:09:33;;;;;;;37.55;8.10;;;;;;;6.66;100.00;102123.56;5027955;28;20064;-81
2024/01/23 11:12:10;;;;;;;39.70;6.53;;;;;;;6.69;100.00;102115.84;5000839;28;20821;-79
2024/01/23 11:14:51;;;;;;;30.92;6.70;;;;;;;6.74;100.00;102126.50;5021055;28;20052;-79
2024/01/23 11:17:20;;;;;;;44.13;8.48;;;;;;;6.78;100.00;102123.16;5038793;28;20601;-80
2024/01/23 11:20:05;;;;;;;37.67;7.43;;;;;;;6.81;100.00;102118.06;5007057;28;20049;-80
2024/01/23 11:22:33;;;;;;;38.47;7.75;;;;;;;6.85;100.00;102122.56;5018201;28;20050;-80